sensor_id;sensor_type;location;lat;lon;timestamp;temperature;humidity
5134;DHT22;2585;48.696;10.066;2023-05-29T00:01:38;8.50;1.00
5134;DHT22;2585;48.696;10.066;2023-05-29T00:04:07;8.50;1.00
5134;DHT22;2585;48.696;10.066;2023-05-29T00:06:34;8.40;1.00
5134;DHT22;2585;48.696;10.066;2023-05-29T00:09:02;8.40;1.00
5134;DHT22;2585;48.696;10.066;2023-05-29T00:11:30;8.40;1.00
5134;DHT22;2585;48.696;10.066;2023-05-29T00:13:57;8.40;1.00
5134;DHT22;2585;48.696;10.066;2023-05-29T00:16:24;8.40;1.00
5134;DHT22;2585;48.696;10.066;2023-05-29T00:18:51;8.30;1.00
5134;DHT22;2585;48.696;10.066;2023-05-29T00:21:18;8.30;1.00
5134;DHT22;2585;48.696;10.066;2023-05-29T00:23:45;8.30;1.00
5134;DHT22;2585;48.696;10.066;2023-05-29T00:26:12;8.30;1.00
5134;DHT22;2585;48.696;10.066;2023-05-29T00:28:40;8.20;1.00
5134;DHT22;2585;48.696;10.066;2023-05-29T00:31:07;8.20;1.00
5134;DHT22;2585;48.696;10.066;2023-05-29T00:33:34;8.20;1.00
5134;DHT22;2585;48.696;10.066;2023-05-29T00:36:01;8.10;1.00
5134;DHT22;2585;48.696;10.066;2023-05-29T00:38:27;8.10;1.00
5134;DHT22;2585;48.696;10.066;2023-05-29T00:40:54;8.10;1.00
5134;DHT22;2585;48.696;10.066;2023-05-29T00:43:21;8.00;1.00
5134;DHT22;2585;48.696;10.066;2023-05-29T00:45:48;8.00;1.00
5134;DHT22;2585;48.696;10.066;2023-05-29T00:48:15;8.00;7.70
5134;DHT22;2585;48.696;10.066;2023-05-29T00:50:43;8.00;6.40
5134;DHT22;2585;48.696;10.066;2023-05-29T00:53:11;7.90;8.60
5134;DHT22;2585;48.696;10.066;2023-05-29T00:55:38;7.90;14.60
5134;DHT22;2585;48.696;10.066;2023-05-29T00:58:06;7.90;18.20
5134;DHT22;2585;48.696;10.066;2023-05-29T01:00:32;7.90;23.90
5134;DHT22;2585;48.696;10.066;2023-05-29T01:03:03;7.90;19.80
5134;DHT22;2585;48.696;10.066;2023-05-29T01:05:34;7.80;15.60
5134;DHT22;2585;48.696;10.066;2023-05-29T01:08:02;7.80;21.30
5134;DHT22;2585;48.696;10.066;2023-05-29T01:10:29;7.80;26.20
5134;DHT22;2585;48.696;10.066;2023-05-29T01:13:16;7.70;30.80
5134;DHT22;2585;48.696;10.066;2023-05-29T01:16:01;7.70;38.90
5134;DHT22;2585;48.696;10.066;2023-05-29T01:18:55;7.70;39.60
5134;DHT22;2585;48.696;10.066;2023-05-29T01:27:08;7.60;45.40
5134;DHT22;2585;48.696;10.066;2023-05-29T01:29:39;7.60;49.60
5134;DHT22;2585;48.696;10.066;2023-05-29T01:32:07;7.50;52.60
5134;DHT22;2585;48.696;10.066;2023-05-29T01:34:34;7.50;55.40
5134;DHT22;2585;48.696;10.066;2023-05-29T01:37:01;7.50;59.90
5134;DHT22;2585;48.696;10.066;2023-05-29T01:39:30;7.40;60.20
5134;DHT22;2585;48.696;10.066;2023-05-29T01:41:58;7.40;60.50
5134;DHT22;2585;48.696;10.066;2023-05-29T01:44:26;7.40;61.40
5134;DHT22;2585;48.696;10.066;2023-05-29T01:46:54;7.40;62.70
5134;DHT22;2585;48.696;10.066;2023-05-29T01:49:23;7.40;63.70
5134;DHT22;2585;48.696;10.066;2023-05-29T01:51:51;7.30;64.50
5134;DHT22;2585;48.696;10.066;2023-05-29T01:54:18;7.20;64.50
5134;DHT22;2585;48.696;10.066;2023-05-29T01:56:45;7.20;65.50
5134;DHT22;2585;48.696;10.066;2023-05-29T01:59:12;7.20;65.10
5134;DHT22;2585;48.696;10.066;2023-05-29T02:01:39;7.10;64.80
5134;DHT22;2585;48.696;10.066;2023-05-29T02:04:07;7.10;65.70
5134;DHT22;2585;48.696;10.066;2023-05-29T02:06:34;7.10;66.40
5134;DHT22;2585;48.696;10.066;2023-05-29T02:09:00;7.10;67.60
5134;DHT22;2585;48.696;10.066;2023-05-29T02:11:28;7.10;68.40
5134;DHT22;2585;48.696;10.066;2023-05-29T02:13:55;7.10;68.50
5134;DHT22;2585;48.696;10.066;2023-05-29T02:16:22;7.00;68.40
5134;DHT22;2585;48.696;10.066;2023-05-29T02:18:49;7.00;69.00
5134;DHT22;2585;48.696;10.066;2023-05-29T02:21:15;7.00;69.30
5134;DHT22;2585;48.696;10.066;2023-05-29T02:23:42;7.00;69.40
5134;DHT22;2585;48.696;10.066;2023-05-29T02:26:09;7.00;69.40
5134;DHT22;2585;48.696;10.066;2023-05-29T02:28:37;6.90;69.70
5134;DHT22;2585;48.696;10.066;2023-05-29T02:31:03;6.90;70.20
5134;DHT22;2585;48.696;10.066;2023-05-29T02:33:30;6.90;70.50
5134;DHT22;2585;48.696;10.066;2023-05-29T02:35:57;6.90;70.90
5134;DHT22;2585;48.696;10.066;2023-05-29T02:38:24;6.90;71.10
5134;DHT22;2585;48.696;10.066;2023-05-29T02:40:51;6.80;70.60
5134;DHT22;2585;48.696;10.066;2023-05-29T02:43:18;6.80;70.50
5134;DHT22;2585;48.696;10.066;2023-05-29T02:45:44;6.80;70.60
5134;DHT22;2585;48.696;10.066;2023-05-29T02:48:11;6.80;70.80
5134;DHT22;2585;48.696;10.066;2023-05-29T02:50:38;6.70;70.70
5134;DHT22;2585;48.696;10.066;2023-05-29T02:53:05;6.70;71.50
5134;DHT22;2585;48.696;10.066;2023-05-29T02:55:32;6.70;72.20
5134;DHT22;2585;48.696;10.066;2023-05-29T02:58:02;6.70;72.40
5134;DHT22;2585;48.696;10.066;2023-05-29T03:00:29;6.70;72.20
5134;DHT22;2585;48.696;10.066;2023-05-29T03:02:56;6.70;72.30
5134;DHT22;2585;48.696;10.066;2023-05-29T03:05:23;6.70;72.30
5134;DHT22;2585;48.696;10.066;2023-05-29T03:07:50;6.60;72.10
5134;DHT22;2585;48.696;10.066;2023-05-29T03:10:17;6.60;72.40
5134;DHT22;2585;48.696;10.066;2023-05-29T03:12:44;6.50;72.10
5134;DHT22;2585;48.696;10.066;2023-05-29T03:15:11;6.50;72.60
5134;DHT22;2585;48.696;10.066;2023-05-29T03:17:38;6.50;73.00
5134;DHT22;2585;48.696;10.066;2023-05-29T03:20:06;6.50;73.20
5134;DHT22;2585;48.696;10.066;2023-05-29T03:22:34;6.50;73.30
5134;DHT22;2585;48.696;10.066;2023-05-29T03:25:05;6.40;73.10
5134;DHT22;2585;48.696;10.066;2023-05-29T03:27:32;6.40;73.00
5134;DHT22;2585;48.696;10.066;2023-05-29T03:29:59;6.40;73.00
5134;DHT22;2585;48.696;10.066;2023-05-29T03:32:26;6.40;72.80
5134;DHT22;2585;48.696;10.066;2023-05-29T03:34:53;6.40;73.10
5134;DHT22;2585;48.696;10.066;2023-05-29T03:37:20;6.40;73.40
5134;DHT22;2585;48.696;10.066;2023-05-29T03:39:46;6.40;73.60
5134;DHT22;2585;48.696;10.066;2023-05-29T03:42:13;6.40;73.90
5134;DHT22;2585;48.696;10.066;2023-05-29T03:44:41;6.50;74.20
5134;DHT22;2585;48.696;10.066;2023-05-29T03:47:08;6.40;73.90
5134;DHT22;2585;48.696;10.066;2023-05-29T03:49:36;6.40;73.90
5134;DHT22;2585;48.696;10.066;2023-05-29T03:52:03;6.40;74.10
5134;DHT22;2585;48.696;10.066;2023-05-29T03:54:30;6.40;74.20
5134;DHT22;2585;48.696;10.066;2023-05-29T03:56:56;6.40;74.60
5134;DHT22;2585;48.696;10.066;2023-05-29T03:59:23;6.40;74.80
5134;DHT22;2585;48.696;10.066;2023-05-29T04:01:50;6.50;75.20
5134;DHT22;2585;48.696;10.066;2023-05-29T04:04:17;6.50;75.40
5134;DHT22;2585;48.696;10.066;2023-05-29T04:06:44;6.50;76.00
5134;DHT22;2585;48.696;10.066;2023-05-29T04:09:11;6.60;76.60
5134;DHT22;2585;48.696;10.066;2023-05-29T04:11:38;6.60;76.90
5134;DHT22;2585;48.696;10.066;2023-05-29T04:14:06;6.60;77.30
5134;DHT22;2585;48.696;10.066;2023-05-29T04:16:32;6.60;77.50
5134;DHT22;2585;48.696;10.066;2023-05-29T04:18:59;6.60;77.70
5134;DHT22;2585;48.696;10.066;2023-05-29T04:21:26;6.70;78.20
5134;DHT22;2585;48.696;10.066;2023-05-29T04:23:53;6.70;78.40
5134;DHT22;2585;48.696;10.066;2023-05-29T04:26:22;6.80;78.80
5134;DHT22;2585;48.696;10.066;2023-05-29T04:28:55;6.80;78.70
5134;DHT22;2585;48.696;10.066;2023-05-29T04:31:25;6.90;78.80
5134;DHT22;2585;48.696;10.066;2023-05-29T04:33:53;6.90;78.80
5134;DHT22;2585;48.696;10.066;2023-05-29T04:36:26;7.00;78.90
5134;DHT22;2585;48.696;10.066;2023-05-29T04:38:53;7.00;79.10
5134;DHT22;2585;48.696;10.066;2023-05-29T04:41:20;7.10;79.40
5134;DHT22;2585;48.696;10.066;2023-05-29T04:43:56;7.20;80.00
5134;DHT22;2585;48.696;10.066;2023-05-29T04:46:23;7.20;80.40
5134;DHT22;2585;48.696;10.066;2023-05-29T04:48:51;7.30;80.80
5134;DHT22;2585;48.696;10.066;2023-05-29T04:51:21;7.40;81.10
5134;DHT22;2585;48.696;10.066;2023-05-29T04:53:50;7.50;80.90
5134;DHT22;2585;48.696;10.066;2023-05-29T04:56:18;7.50;80.60
5134;DHT22;2585;48.696;10.066;2023-05-29T04:58:45;7.70;80.30
5134;DHT22;2585;48.696;10.066;2023-05-29T05:01:12;7.80;79.60
5134;DHT22;2585;48.696;10.066;2023-05-29T05:03:41;7.90;79.10
5134;DHT22;2585;48.696;10.066;2023-05-29T05:06:09;8.00;78.70
5134;DHT22;2585;48.696;10.066;2023-05-29T05:08:36;8.10;78.10
5134;DHT22;2585;48.696;10.066;2023-05-29T05:11:03;8.20;77.90
5134;DHT22;2585;48.696;10.066;2023-05-29T05:13:30;8.40;78.30
5134;DHT22;2585;48.696;10.066;2023-05-29T05:15:56;8.50;78.50
5134;DHT22;2585;48.696;10.066;2023-05-29T05:18:23;8.70;78.10
5134;DHT22;2585;48.696;10.066;2023-05-29T05:20:50;8.70;77.20
5134;DHT22;2585;48.696;10.066;2023-05-29T05:23:17;8.90;76.60
5134;DHT22;2585;48.696;10.066;2023-05-29T05:25:44;8.90;76.00
5134;DHT22;2585;48.696;10.066;2023-05-29T05:28:11;9.10;75.70
5134;DHT22;2585;48.696;10.066;2023-05-29T05:30:38;9.20;74.90
5134;DHT22;2585;48.696;10.066;2023-05-29T05:33:05;9.30;73.70
5134;DHT22;2585;48.696;10.066;2023-05-29T05:35:32;9.50;72.00
5134;DHT22;2585;48.696;10.066;2023-05-29T05:37:59;9.70;66.80
5134;DHT22;2585;48.696;10.066;2023-05-29T05:40:27;9.90;61.00
5134;DHT22;2585;48.696;10.066;2023-05-29T05:42:54;10.00;51.50
5134;DHT22;2585;48.696;10.066;2023-05-29T05:45:20;10.20;47.60
5134;DHT22;2585;48.696;10.066;2023-05-29T05:47:48;10.30;48.90
5134;DHT22;2585;48.696;10.066;2023-05-29T05:50:15;10.40;55.40
5134;DHT22;2585;48.696;10.066;2023-05-29T05:52:42;10.60;57.20
5134;DHT22;2585;48.696;10.066;2023-05-29T05:55:08;10.80;50.20
5134;DHT22;2585;48.696;10.066;2023-05-29T05:57:35;11.10;12.60
5134;DHT22;2585;48.696;10.066;2023-05-29T06:00:03;11.40;1.00
5134;DHT22;2585;48.696;10.066;2023-05-29T06:02:39;11.70;1.00
5134;DHT22;2585;48.696;10.066;2023-05-29T06:05:11;12.10;82.40
5134;DHT22;2585;48.696;10.066;2023-05-29T06:07:38;12.30;71.30
5134;DHT22;2585;48.696;10.066;2023-05-29T06:10:06;12.70;1.00
5134;DHT22;2585;48.696;10.066;2023-05-29T06:12:33;13.00;55.80
5134;DHT22;2585;48.696;10.066;2023-05-29T06:15:01;13.30;1.00
5134;DHT22;2585;48.696;10.066;2023-05-29T06:17:28;13.60;91.20
5134;DHT22;2585;48.696;10.066;2023-05-29T06:19:55;13.80;1.00
5134;DHT22;2585;48.696;10.066;2023-05-29T06:22:22;14.20;60.80
5134;DHT22;2585;48.696;10.066;2023-05-29T06:24:48;14.40;82.10
5134;DHT22;2585;48.696;10.066;2023-05-29T06:27:15;14.80;1.00
5134;DHT22;2585;48.696;10.066;2023-05-29T06:29:42;15.10;1.00
5134;DHT22;2585;48.696;10.066;2023-05-29T06:32:09;15.50;84.80
5134;DHT22;2585;48.696;10.066;2023-05-29T06:34:36;15.70;1.00
5134;DHT22;2585;48.696;10.066;2023-05-29T06:37:03;16.00;1.00
5134;DHT22;2585;48.696;10.066;2023-05-29T06:39:29;16.30;75.10
5134;DHT22;2585;48.696;10.066;2023-05-29T06:41:57;16.60;1.00
5134;DHT22;2585;48.696;10.066;2023-05-29T06:44:23;16.80;1.00
5134;DHT22;2585;48.696;10.066;2023-05-29T06:46:50;16.90;62.50
5134;DHT22;2585;48.696;10.066;2023-05-29T06:49:17;17.40;60.60
5134;DHT22;2585;48.696;10.066;2023-05-29T06:51:44;17.70;20.80
5134;DHT22;2585;48.696;10.066;2023-05-29T06:54:11;17.70;1.00
5134;DHT22;2585;48.696;10.066;2023-05-29T06:56:38;17.90;1.00
5134;DHT22;2585;48.696;10.066;2023-05-29T06:59:05;18.10;80.10
5134;DHT22;2585;48.696;10.066;2023-05-29T07:01:31;18.20;69.30
5134;DHT22;2585;48.696;10.066;2023-05-29T07:03:58;18.40;62.70
5134;DHT22;2585;48.696;10.066;2023-05-29T07:06:25;18.80;62.50
5134;DHT22;2585;48.696;10.066;2023-05-29T07:08:52;19.30;67.10
5134;DHT22;2585;48.696;10.066;2023-05-29T07:11:19;19.80;21.80
5134;DHT22;2585;48.696;10.066;2023-05-29T07:13:46;20.10;3.30
5134;DHT22;2585;48.696;10.066;2023-05-29T07:16:12;20.20;1.00
5134;DHT22;2585;48.696;10.066;2023-05-29T07:18:51;20.40;1.00
5134;DHT22;2585;48.696;10.066;2023-05-29T07:21:17;20.40;1.00
5134;DHT22;2585;48.696;10.066;2023-05-29T07:23:45;20.80;93.70
5134;DHT22;2585;48.696;10.066;2023-05-29T07:26:12;21.10;1.00
5134;DHT22;2585;48.696;10.066;2023-05-29T07:28:39;21.20;88.90
5134;DHT22;2585;48.696;10.066;2023-05-29T07:31:06;21.60;83.10
5134;DHT22;2585;48.696;10.066;2023-05-29T07:33:32;21.80;78.50
5134;DHT22;2585;48.696;10.066;2023-05-29T07:35:59;21.80;68.30
5134;DHT22;2585;48.696;10.066;2023-05-29T07:38:26;21.80;63.80
5134;DHT22;2585;48.696;10.066;2023-05-29T07:40:53;22.00;60.80
5134;DHT22;2585;48.696;10.066;2023-05-29T07:43:20;22.40;61.50
5134;DHT22;2585;48.696;10.066;2023-05-29T07:45:47;22.50;56.50
5134;DHT22;2585;48.696;10.066;2023-05-29T07:48:14;22.80;42.40
5134;DHT22;2585;48.696;10.066;2023-05-29T07:50:41;23.20;36.20
5134;DHT22;2585;48.696;10.066;2023-05-29T07:53:08;23.20;20.90
5134;DHT22;2585;48.696;10.066;2023-05-29T07:55:35;23.60;15.80
5134;DHT22;2585;48.696;10.066;2023-05-29T07:58:02;23.60;20.20
5134;DHT22;2585;48.696;10.066;2023-05-29T08:00:29;23.70;1.00
5134;DHT22;2585;48.696;10.066;2023-05-29T08:02:56;23.80;1.00
5134;DHT22;2585;48.696;10.066;2023-05-29T08:05:24;23.70;1.00
5134;DHT22;2585;48.696;10.066;2023-05-29T08:07:51;23.80;1.00
5134;DHT22;2585;48.696;10.066;2023-05-29T08:10:18;23.80;1.00
5134;DHT22;2585;48.696;10.066;2023-05-29T08:12:44;23.50;1.00
5134;DHT22;2585;48.696;10.066;2023-05-29T08:15:12;23.40;1.00
5134;DHT22;2585;48.696;10.066;2023-05-29T08:17:39;23.70;1.00
5134;DHT22;2585;48.696;10.066;2023-05-29T08:20:06;23.60;1.00
5134;DHT22;2585;48.696;10.066;2023-05-29T08:22:34;23.90;1.00
5134;DHT22;2585;48.696;10.066;2023-05-29T08:25:00;24.40;1.00
5134;DHT22;2585;48.696;10.066;2023-05-29T08:27:28;24.60;1.00
5134;DHT22;2585;48.696;10.066;2023-05-29T08:29:54;24.70;1.00
5134;DHT22;2585;48.696;10.066;2023-05-29T08:32:21;24.50;1.00
5134;DHT22;2585;48.696;10.066;2023-05-29T08:34:48;24.60;1.00
5134;DHT22;2585;48.696;10.066;2023-05-29T08:37:16;24.50;1.00
5134;DHT22;2585;48.696;10.066;2023-05-29T08:39:44;24.40;95.60
5134;DHT22;2585;48.696;10.066;2023-05-29T08:42:13;24.40;95.50
5134;DHT22;2585;48.696;10.066;2023-05-29T08:44:47;24.90;95.20
5134;DHT22;2585;48.696;10.066;2023-05-29T08:47:17;24.70;94.30
5134;DHT22;2585;48.696;10.066;2023-05-29T08:49:53;24.50;93.40
5134;DHT22;2585;48.696;10.066;2023-05-29T08:52:23;24.70;93.80
5134;DHT22;2585;48.696;10.066;2023-05-29T08:54:53;24.60;91.90
5134;DHT22;2585;48.696;10.066;2023-05-29T08:57:21;24.90;92.40
5134;DHT22;2585;48.696;10.066;2023-05-29T08:59:51;24.60;90.60
5134;DHT22;2585;48.696;10.066;2023-05-29T09:02:18;24.60;90.90
5134;DHT22;2585;48.696;10.066;2023-05-29T09:04:46;24.60;90.50
5134;DHT22;2585;48.696;10.066;2023-05-29T09:07:16;24.90;90.30
5134;DHT22;2585;48.696;10.066;2023-05-29T09:09:46;25.40;90.20
5134;DHT22;2585;48.696;10.066;2023-05-29T09:12:13;25.60;89.40
5134;DHT22;2585;48.696;10.066;2023-05-29T09:14:42;25.60;87.40
5134;DHT22;2585;48.696;10.066;2023-05-29T09:17:10;25.80;86.50
5134;DHT22;2585;48.696;10.066;2023-05-29T09:19:38;26.10;86.60
5134;DHT22;2585;48.696;10.066;2023-05-29T09:22:09;25.70;86.10
5134;DHT22;2585;48.696;10.066;2023-05-29T09:24:37;26.10;85.50
5134;DHT22;2585;48.696;10.066;2023-05-29T09:27:05;26.30;84.50
5134;DHT22;2585;48.696;10.066;2023-05-29T09:29:41;26.60;84.20
5134;DHT22;2585;48.696;10.066;2023-05-29T09:32:13;26.70;84.30
5134;DHT22;2585;48.696;10.066;2023-05-29T09:34:41;26.40;82.00
5134;DHT22;2585;48.696;10.066;2023-05-29T09:37:10;26.50;82.80
5134;DHT22;2585;48.696;10.066;2023-05-29T09:39:45;26.50;83.70
5134;DHT22;2585;48.696;10.066;2023-05-29T09:42:16;27.00;84.20
5134;DHT22;2585;48.696;10.066;2023-05-29T09:44:48;27.50;83.70
5134;DHT22;2585;48.696;10.066;2023-05-29T09:47:18;27.30;81.70
5134;DHT22;2585;48.696;10.066;2023-05-29T09:49:46;26.80;79.20
5134;DHT22;2585;48.696;10.066;2023-05-29T09:52:21;26.30;78.90
5134;DHT22;2585;48.696;10.066;2023-05-29T09:54:49;27.10;79.90
5134;DHT22;2585;48.696;10.066;2023-05-29T09:57:17;26.90;77.80
5134;DHT22;2585;48.696;10.066;2023-05-29T09:59:44;26.50;77.60
5134;DHT22;2585;48.696;10.066;2023-05-29T10:02:14;26.90;77.00
5134;DHT22;2585;48.696;10.066;2023-05-29T10:04:42;27.10;75.30
5134;DHT22;2585;48.696;10.066;2023-05-29T10:09:47;27.00;74.20
5134;DHT22;2585;48.696;10.066;2023-05-29T10:12:20;27.40;75.30
5134;DHT22;2585;48.696;10.066;2023-05-29T10:14:49;27.50;74.30
5134;DHT22;2585;48.696;10.066;2023-05-29T10:17:18;27.40;73.00
5134;DHT22;2585;48.696;10.066;2023-05-29T10:19:50;27.40;72.70
5134;DHT22;2585;48.696;10.066;2023-05-29T10:22:20;27.50;71.00
5134;DHT22;2585;48.696;10.066;2023-05-29T10:24:49;27.60;70.70
5134;DHT22;2585;48.696;10.066;2023-05-29T10:27:18;27.70;71.10
5134;DHT22;2585;48.696;10.066;2023-05-29T10:30:05;27.00;69.10
5134;DHT22;2585;48.696;10.066;2023-05-29T10:32:44;26.90;69.10
5134;DHT22;2585;48.696;10.066;2023-05-29T10:35:25;26.50;67.30
5134;DHT22;2585;48.696;10.066;2023-05-29T10:38:12;26.60;67.70
5134;DHT22;2585;48.696;10.066;2023-05-29T10:40:40;26.90;68.40
5134;DHT22;2585;48.696;10.066;2023-05-29T10:43:07;27.30;68.50
5134;DHT22;2585;48.696;10.066;2023-05-29T10:50:56;27.30;67.90
5134;DHT22;2585;48.696;10.066;2023-05-29T10:53:25;27.20;67.50
5134;DHT22;2585;48.696;10.066;2023-05-29T10:55:54;27.60;66.70
5134;DHT22;2585;48.696;10.066;2023-05-29T10:58:23;27.90;67.00
5134;DHT22;2585;48.696;10.066;2023-05-29T11:00:51;27.80;66.90
5134;DHT22;2585;48.696;10.066;2023-05-29T11:03:25;27.70;66.70
5134;DHT22;2585;48.696;10.066;2023-05-29T11:06:19;27.90;66.00
5134;DHT22;2585;48.696;10.066;2023-05-29T11:08:53;27.60;65.40
5134;DHT22;2585;48.696;10.066;2023-05-29T11:11:30;27.50;65.50
5134;DHT22;2585;48.696;10.066;2023-05-29T11:14:05;27.60;65.50
5134;DHT22;2585;48.696;10.066;2023-05-29T11:19:05;28.00;65.20
5134;DHT22;2585;48.696;10.066;2023-05-29T11:24:21;28.20;65.40
5134;DHT22;2585;48.696;10.066;2023-05-29T11:26:50;28.30;63.90
5134;DHT22;2585;48.696;10.066;2023-05-29T11:29:27;28.20;63.10
5134;DHT22;2585;48.696;10.066;2023-05-29T11:32:05;28.30;63.50
5134;DHT22;2585;48.696;10.066;2023-05-29T11:34:33;27.30;62.20
5134;DHT22;2585;48.696;10.066;2023-05-29T11:37:01;27.60;62.90
5134;DHT22;2585;48.696;10.066;2023-05-29T11:39:29;27.60;64.30
5134;DHT22;2585;48.696;10.066;2023-05-29T11:41:56;27.10;62.70
5134;DHT22;2585;48.696;10.066;2023-05-29T11:44:26;28.10;62.90
5134;DHT22;2585;48.696;10.066;2023-05-29T11:47:03;28.40;63.10
5134;DHT22;2585;48.696;10.066;2023-05-29T11:49:35;28.60;62.10
5134;DHT22;2585;48.696;10.066;2023-05-29T11:52:13;29.00;62.40
5134;DHT22;2585;48.696;10.066;2023-05-29T11:54:43;28.90;62.80
5134;DHT22;2585;48.696;10.066;2023-05-29T11:57:22;27.50;60.10
5134;DHT22;2585;48.696;10.066;2023-05-29T11:59:52;27.90;60.50
5134;DHT22;2585;48.696;10.066;2023-05-29T12:02:19;28.40;60.80
5134;DHT22;2585;48.696;10.066;2023-05-29T12:05:08;28.40;62.20
5134;DHT22;2585;48.696;10.066;2023-05-29T12:07:36;28.20;61.50
5134;DHT22;2585;48.696;10.066;2023-05-29T12:10:13;28.10;60.90
5134;DHT22;2585;48.696;10.066;2023-05-29T12:12:41;27.90;61.70
5134;DHT22;2585;48.696;10.066;2023-05-29T12:15:09;28.10;61.20
5134;DHT22;2585;48.696;10.066;2023-05-29T12:17:36;28.10;60.30
5134;DHT22;2585;48.696;10.066;2023-05-29T12:20:04;28.00;60.10
5134;DHT22;2585;48.696;10.066;2023-05-29T12:22:37;28.00;59.80
5134;DHT22;2585;48.696;10.066;2023-05-29T12:27:45;27.60;59.50
5134;DHT22;2585;48.696;10.066;2023-05-29T12:30:24;27.70;60.20
5134;DHT22;2585;48.696;10.066;2023-05-29T12:33:00;27.20;60.70
5134;DHT22;2585;48.696;10.066;2023-05-29T12:35:29;27.90;60.70
5134;DHT22;2585;48.696;10.066;2023-05-29T12:38:01;27.70;60.50
5134;DHT22;2585;48.696;10.066;2023-05-29T12:40:29;28.30;61.30
5134;DHT22;2585;48.696;10.066;2023-05-29T12:42:59;28.00;59.30
5134;DHT22;2585;48.696;10.066;2023-05-29T12:45:27;27.70;56.90
5134;DHT22;2585;48.696;10.066;2023-05-29T12:47:55;28.00;59.40
5134;DHT22;2585;48.696;10.066;2023-05-29T12:50:28;28.50;60.00
5134;DHT22;2585;48.696;10.066;2023-05-29T12:53:02;28.50;58.20
5134;DHT22;2585;48.696;10.066;2023-05-29T12:55:33;28.60;56.00
5134;DHT22;2585;48.696;10.066;2023-05-29T12:58:00;28.20;52.20
5134;DHT22;2585;48.696;10.066;2023-05-29T13:00:27;28.20;51.90
5134;DHT22;2585;48.696;10.066;2023-05-29T13:02:54;28.10;50.70
5134;DHT22;2585;48.696;10.066;2023-05-29T13:05:21;28.40;53.10
5134;DHT22;2585;48.696;10.066;2023-05-29T13:07:50;28.40;51.30
5134;DHT22;2585;48.696;10.066;2023-05-29T13:10:18;28.40;49.90
5134;DHT22;2585;48.696;10.066;2023-05-29T13:12:45;28.30;49.60
5134;DHT22;2585;48.696;10.066;2023-05-29T13:15:13;28.20;49.40
5134;DHT22;2585;48.696;10.066;2023-05-29T13:17:41;28.20;49.30
5134;DHT22;2585;48.696;10.066;2023-05-29T13:20:12;27.50;50.00
5134;DHT22;2585;48.696;10.066;2023-05-29T13:22:40;28.00;50.00
5134;DHT22;2585;48.696;10.066;2023-05-29T13:25:09;28.10;47.40
5134;DHT22;2585;48.696;10.066;2023-05-29T13:27:37;28.10;48.60
5134;DHT22;2585;48.696;10.066;2023-05-29T13:30:05;28.00;49.40
5134;DHT22;2585;48.696;10.066;2023-05-29T13:32:32;28.30;49.90
5134;DHT22;2585;48.696;10.066;2023-05-29T13:34:59;28.40;46.60
5134;DHT22;2585;48.696;10.066;2023-05-29T13:37:26;28.00;45.80
5134;DHT22;2585;48.696;10.066;2023-05-29T13:39:54;28.10;44.80
5134;DHT22;2585;48.696;10.066;2023-05-29T13:42:21;27.60;42.60
5134;DHT22;2585;48.696;10.066;2023-05-29T13:44:49;28.00;45.50
5134;DHT22;2585;48.696;10.066;2023-05-29T13:47:16;28.10;43.30
5134;DHT22;2585;48.696;10.066;2023-05-29T13:49:43;28.00;42.50
5134;DHT22;2585;48.696;10.066;2023-05-29T13:52:10;27.80;40.20
5134;DHT22;2585;48.696;10.066;2023-05-29T13:54:38;28.30;41.90
5134;DHT22;2585;48.696;10.066;2023-05-29T13:57:06;28.60;46.30
5134;DHT22;2585;48.696;10.066;2023-05-29T13:59:34;28.80;44.00
5134;DHT22;2585;48.696;10.066;2023-05-29T14:02:01;28.40;40.90
5134;DHT22;2585;48.696;10.066;2023-05-29T14:04:30;27.90;38.10
5134;DHT22;2585;48.696;10.066;2023-05-29T14:06:57;27.60;42.70
5134;DHT22;2585;48.696;10.066;2023-05-29T14:09:24;27.70;38.50
5134;DHT22;2585;48.696;10.066;2023-05-29T14:11:54;28.00;38.10
5134;DHT22;2585;48.696;10.066;2023-05-29T14:14:22;28.20;38.30
5134;DHT22;2585;48.696;10.066;2023-05-29T14:16:49;28.10;37.60
5134;DHT22;2585;48.696;10.066;2023-05-29T14:19:17;28.50;38.20
5134;DHT22;2585;48.696;10.066;2023-05-29T14:21:44;28.10;36.90
5134;DHT22;2585;48.696;10.066;2023-05-29T14:24:12;27.80;37.30
5134;DHT22;2585;48.696;10.066;2023-05-29T14:26:39;27.80;37.10
5134;DHT22;2585;48.696;10.066;2023-05-29T14:29:08;28.20;39.60
5134;DHT22;2585;48.696;10.066;2023-05-29T14:31:41;27.90;38.00
5134;DHT22;2585;48.696;10.066;2023-05-29T14:34:09;28.00;37.20
5134;DHT22;2585;48.696;10.066;2023-05-29T14:36:36;27.60;34.20
5134;DHT22;2585;48.696;10.066;2023-05-29T14:39:03;27.30;32.60
5134;DHT22;2585;48.696;10.066;2023-05-29T14:41:31;27.20;35.60
5134;DHT22;2585;48.696;10.066;2023-05-29T14:43:58;27.10;34.30
5134;DHT22;2585;48.696;10.066;2023-05-29T14:46:25;27.20;35.30
5134;DHT22;2585;48.696;10.066;2023-05-29T14:48:54;26.90;32.30
5134;DHT22;2585;48.696;10.066;2023-05-29T14:51:21;27.00;32.80
5134;DHT22;2585;48.696;10.066;2023-05-29T14:53:50;26.90;32.50
5134;DHT22;2585;48.696;10.066;2023-05-29T14:56:17;26.90;32.60
5134;DHT22;2585;48.696;10.066;2023-05-29T14:58:47;26.60;31.60
5134;DHT22;2585;48.696;10.066;2023-05-29T15:01:17;26.20;36.50
5134;DHT22;2585;48.696;10.066;2023-05-29T15:03:44;26.10;31.00
5134;DHT22;2585;48.696;10.066;2023-05-29T15:06:12;26.00;30.00
5134;DHT22;2585;48.696;10.066;2023-05-29T15:08:40;26.30;30.20
5134;DHT22;2585;48.696;10.066;2023-05-29T15:11:09;26.10;30.70
5134;DHT22;2585;48.696;10.066;2023-05-29T15:13:36;25.80;29.00
5134;DHT22;2585;48.696;10.066;2023-05-29T15:16:03;25.60;29.40
5134;DHT22;2585;48.696;10.066;2023-05-29T15:18:32;25.70;31.80
5134;DHT22;2585;48.696;10.066;2023-05-29T15:20:59;25.30;28.30
5134;DHT22;2585;48.696;10.066;2023-05-29T15:23:26;25.40;27.90
5134;DHT22;2585;48.696;10.066;2023-05-29T15:25:53;25.00;27.00
5134;DHT22;2585;48.696;10.066;2023-05-29T15:28:21;25.00;27.80
5134;DHT22;2585;48.696;10.066;2023-05-29T15:30:48;25.00;27.60
5134;DHT22;2585;48.696;10.066;2023-05-29T15:33:15;24.80;27.60
5134;DHT22;2585;48.696;10.066;2023-05-29T15:35:42;24.90;29.30
5134;DHT22;2585;48.696;10.066;2023-05-29T15:38:10;25.00;29.10
5134;DHT22;2585;48.696;10.066;2023-05-29T15:40:39;24.90;29.70
5134;DHT22;2585;48.696;10.066;2023-05-29T15:43:07;24.90;32.40
5134;DHT22;2585;48.696;10.066;2023-05-29T15:45:35;25.00;30.30
5134;DHT22;2585;48.696;10.066;2023-05-29T15:48:02;24.70;35.40
5134;DHT22;2585;48.696;10.066;2023-05-29T15:50:29;24.50;28.00
5134;DHT22;2585;48.696;10.066;2023-05-29T15:52:56;24.20;27.10
5134;DHT22;2585;48.696;10.066;2023-05-29T15:55:23;24.00;27.60
5134;DHT22;2585;48.696;10.066;2023-05-29T15:57:50;23.70;27.10
5134;DHT22;2585;48.696;10.066;2023-05-29T16:00:18;23.70;29.30
5134;DHT22;2585;48.696;10.066;2023-05-29T16:02:45;23.70;28.60
5134;DHT22;2585;48.696;10.066;2023-05-29T16:05:12;23.60;29.50
5134;DHT22;2585;48.696;10.066;2023-05-29T16:07:39;23.40;28.60
5134;DHT22;2585;48.696;10.066;2023-05-29T16:10:06;23.30;29.20
5134;DHT22;2585;48.696;10.066;2023-05-29T16:12:34;23.30;29.00
5134;DHT22;2585;48.696;10.066;2023-05-29T16:15:02;23.10;27.40
5134;DHT22;2585;48.696;10.066;2023-05-29T16:17:28;23.00;27.60
5134;DHT22;2585;48.696;10.066;2023-05-29T16:19:55;23.10;27.20
5134;DHT22;2585;48.696;10.066;2023-05-29T16:22:24;23.00;27.20
5134;DHT22;2585;48.696;10.066;2023-05-29T16:25:06;22.90;27.40